createdAt,value
2022-09-11T00:01:26.724Z,13.6
2022-09-11T00:07:26.617Z,13.5
2022-09-11T00:09:29.527Z,13.6
2022-09-11T00:11:29.379Z,13.5
2022-09-11T00:13:23.212Z,13.6
2022-09-11T00:15:29.466Z,13.6
2022-09-11T00:17:29.481Z,13.5
2022-09-11T00:19:25.241Z,13.5
2022-09-11T00:21:30.791Z,13.6
2022-09-11T00:23:25.020Z,13.6
2022-09-11T00:25:23.368Z,13.5
2022-09-11T00:31:24.880Z,13.5
2022-09-11T00:33:26.990Z,13.5
2022-09-11T00:37:25.499Z,13.4
2022-09-11T00:39:23.295Z,13.4
2022-09-11T00:41:27.750Z,13.4
2022-09-11T00:43:23.029Z,13.4
2022-09-11T00:45:27.349Z,13.4
2022-09-11T00:47:29.991Z,13.4
2022-09-11T00:49:23.196Z,13.4
2022-09-11T00:51:28.111Z,13.4
2022-09-11T00:53:29.889Z,13.5
2022-09-11T00:55:26.765Z,13.5
2022-09-11T01:01:27.531Z,13.4
2022-09-11T01:03:26.461Z,13.5
2022-09-11T01:07:23.196Z,13.5
2022-09-11T01:09:28.847Z,13.5
2022-09-11T01:13:23.127Z,13.5
2022-09-11T01:15:28.308Z,13.5
2022-09-11T01:17:29.933Z,13.5
2022-09-11T01:19:26.818Z,13.4
2022-09-11T01:23:30.376Z,13.3
2022-09-11T01:25:23.200Z,13.2
2022-09-11T01:27:29.200Z,13.2
2022-09-11T01:31:24.380Z,13
2022-09-11T01:37:23.039Z,13
2022-09-11T01:41:29.949Z,12.9
2022-09-11T01:43:23.038Z,13
2022-09-11T01:45:23.351Z,13
2022-09-11T01:49:25.203Z,13
2022-09-11T01:51:23.359Z,13.1
2022-09-11T01:53:25.065Z,12.9
2022-09-11T01:55:23.036Z,13
2022-09-11T01:57:26.119Z,12.9
2022-09-11T01:59:28.450Z,12.9
2022-09-11T02:01:23.058Z,12.9
2022-09-11T02:03:28.566Z,13
2022-09-11T02:07:23.051Z,13
2022-09-11T02:11:25.868Z,13
2022-09-11T02:13:27.881Z,13
2022-09-11T02:15:29.453Z,13
2022-09-11T02:17:26.952Z,13
2022-09-11T02:19:23.052Z,13.1
2022-09-11T02:25:28.541Z,13.1
2022-09-11T02:29:29.943Z,13.1
2022-09-11T02:31:23.074Z,13.1
2022-09-11T02:33:24.714Z,13.1
2022-09-11T02:35:26.705Z,13.1
2022-09-11T02:37:24.876Z,13.1
2022-09-11T02:39:26.905Z,13.1
2022-09-11T02:41:29.604Z,13.1
2022-09-11T02:43:24.323Z,13.1
2022-09-11T02:45:26.474Z,13.1
2022-09-11T02:47:27.632Z,13.1
2022-09-11T02:51:25.135Z,13.1
2022-09-11T02:55:23.061Z,13.1
2022-09-11T02:57:29.134Z,13.1
2022-09-11T02:59:24.619Z,13.1
2022-09-11T03:01:26.322Z,13.1
2022-09-11T03:03:30.049Z,13.1
2022-09-11T03:05:30.259Z,13.1
2022-09-11T03:07:23.079Z,13.1
2022-09-11T03:09:28.512Z,13.1
2022-09-11T03:13:23.070Z,13.1
2022-09-11T03:15:29.588Z,13.1
2022-09-11T03:17:30.099Z,13.1
2022-09-11T03:19:28.277Z,13.1
2022-09-11T03:21:28.976Z,13.1
2022-09-11T03:23:29.336Z,13.1
2022-09-11T03:25:23.067Z,13
2022-09-11T03:29:26.782Z,13
2022-09-11T03:31:28.169Z,13
2022-09-11T03:33:29.931Z,12.9
2022-09-11T03:35:27.781Z,12.9
2022-09-11T03:37:23.028Z,12.9
2022-09-11T03:39:28.708Z,13
2022-09-11T03:43:29.967Z,13
2022-09-11T03:45:24.756Z,13
2022-09-11T03:47:27.058Z,13
2022-09-11T03:49:23.082Z,13.1
2022-09-11T03:51:29.197Z,13.1
2022-09-11T03:55:27.892Z,13.1
2022-09-11T03:57:29.967Z,13.1
2022-09-11T04:01:29.950Z,13.1
2022-09-11T04:03:27.917Z,13.1
2022-09-11T04:07:23.041Z,13.1
2022-09-11T04:09:27.809Z,13.1
2022-09-11T04:11:37.288Z,13.1
2022-09-11T04:13:26.961Z,13.1
2022-09-11T04:17:25.657Z,13.1
2022-09-11T04:19:28.019Z,13.1
2022-09-11T04:21:28.689Z,13.1
2022-09-11T04:25:27.876Z,13.1
2022-09-11T04:27:28.477Z,13.1
2022-09-11T04:31:27.143Z,13.1
2022-09-11T04:33:28.848Z,13.1
2022-09-11T04:35:30.379Z,13.1
2022-09-11T04:37:29.289Z,13.1
2022-09-11T04:41:29.781Z,13.1
2022-09-11T04:43:27.543Z,13.1
2022-09-11T04:55:24.042Z,13.1
2022-09-11T04:57:29.762Z,13.1
2022-09-11T04:59:25.943Z,13.1
2022-09-11T05:01:29.706Z,13.1
2022-09-11T05:03:24.402Z,13.2
2022-09-11T05:05:29.359Z,13.1
2022-09-11T05:07:33.450Z,13.1
2022-09-11T05:11:29.818Z,13.1
2022-09-11T05:13:23.923Z,13.1
2022-09-11T05:19:26.733Z,13.1
2022-09-11T05:21:29.700Z,13.1
2022-09-11T05:25:23.435Z,13.1
2022-09-11T05:31:28.730Z,13.2
2022-09-11T05:33:27.224Z,13.2
2022-09-11T05:37:27.012Z,13.2
2022-09-11T05:39:30.857Z,13.2
2022-09-11T05:41:29.396Z,13.2
2022-09-11T05:43:24.369Z,13.2
2022-09-11T05:45:29.771Z,13.2
2022-09-11T05:49:23.797Z,13.2
2022-09-11T05:51:30.180Z,13.2
2022-09-11T05:55:27.480Z,13.1
2022-09-11T06:01:29.740Z,13.1
2022-09-11T06:03:29.917Z,13.1
2022-09-11T06:05:30.780Z,13.1
2022-09-11T06:07:23.791Z,13.1
2022-09-11T06:09:30.694Z,13.1
2022-09-11T06:13:27.045Z,13.1
2022-09-11T06:15:45.991Z,13.1
2022-09-11T06:17:30.937Z,13.2
2022-09-11T06:19:26.011Z,13.2
2022-09-11T06:23:26.171Z,13.2
2022-09-11T06:25:24.714Z,13.2
2022-09-11T06:27:29.118Z,13.2
2022-09-11T06:31:27.033Z,13.2
2022-09-11T06:35:30.938Z,13.2
2022-09-11T06:37:24.673Z,13.2
2022-09-11T06:43:24.871Z,13.3
2022-09-11T06:45:25.912Z,13.4
2022-09-11T06:49:24.532Z,13.5
2022-09-11T06:51:25.894Z,13.4
2022-09-11T06:53:24.005Z,13.4
2022-09-11T06:55:24.849Z,13.5
2022-09-11T06:57:29.755Z,13.5
2022-09-11T06:59:24.169Z,13.6
2022-09-11T07:01:27.557Z,13.5
2022-09-11T07:03:31.025Z,13.6
2022-09-11T07:07:24.527Z,13.6
2022-09-11T07:09:28.206Z,13.6
2022-09-11T07:11:30.731Z,13.6
2022-09-11T07:13:24.538Z,13.6
2022-09-11T07:15:30.823Z,13.7
2022-09-11T07:19:24.394Z,13.9
2022-09-11T07:21:30.820Z,13.9
2022-09-11T07:25:26.165Z,14.1
2022-09-11T07:27:29.663Z,14.1
2022-09-11T07:29:27.912Z,14.2
2022-09-11T07:31:26.584Z,14.2
2022-09-11T07:35:26.015Z,14.6
2022-09-11T07:37:24.167Z,14.6
2022-09-11T07:41:31.463Z,14.7
2022-09-11T07:43:30.798Z,14.4
2022-09-11T07:45:31.363Z,14.3
2022-09-11T07:47:31.380Z,14.2
2022-09-11T07:49:27.663Z,14.3
2022-09-11T07:53:31.533Z,14.2
2022-09-11T07:55:30.811Z,14.2
2022-09-11T07:57:31.332Z,14.2
2022-09-11T07:59:31.201Z,14.3
2022-09-11T08:01:24.088Z,14.3
2022-09-11T08:05:31.403Z,14.4
2022-09-11T08:07:23.508Z,14.4
2022-09-11T08:09:31.543Z,14.4
2022-09-11T08:13:24.095Z,14.5
2022-09-11T08:17:26.032Z,14.6
2022-09-11T08:19:26.431Z,14.6
2022-09-11T08:25:26.240Z,14.6
2022-09-11T08:31:24.105Z,14.4
2022-09-11T08:37:29.380Z,14.3
2022-09-11T08:39:26.500Z,14.3
2022-09-11T08:41:24.220Z,14.3
2022-09-11T08:43:27.622Z,14.3
2022-09-11T08:47:24.386Z,14.7
2022-09-11T08:49:27.180Z,14.7
2022-09-11T08:51:30.995Z,15.1
2022-09-11T08:55:28.607Z,15.5
2022-09-11T08:57:31.347Z,16.1
2022-09-11T09:01:26.893Z,16.4
2022-09-11T09:05:31.110Z,16.5
2022-09-11T09:13:23.459Z,16.7
2022-09-11T09:15:26.229Z,16.7
2022-09-11T09:17:26.113Z,16.7
2022-09-11T09:19:23.451Z,16.7
2022-09-11T09:25:24.148Z,16.8
2022-09-11T09:31:27.997Z,16.8
2022-09-11T09:33:25.479Z,16.8
2022-09-11T09:35:24.124Z,16.4
2022-09-11T09:37:27.108Z,16.4
2022-09-11T09:43:28.893Z,16.9
2022-09-11T09:49:27.121Z,16.9
2022-09-11T09:55:24.281Z,16.9
2022-09-11T10:01:08.690Z,17.1
2022-09-11T10:07:25.882Z,17.4
2022-09-11T10:09:30.427Z,17.5
2022-09-11T10:11:28.379Z,17.5
2022-09-11T10:13:26.749Z,17.6
2022-09-11T10:15:29.346Z,17.5
2022-09-11T10:19:26.138Z,17.4
2022-09-11T10:25:29.999Z,17.3
2022-09-11T10:27:30.665Z,17.3
2022-09-11T10:31:26.497Z,17.3
2022-09-11T10:33:30.582Z,17.3
2022-09-11T10:35:30.563Z,17.3
2022-09-11T10:37:28.981Z,17.3
2022-09-11T10:39:30.731Z,17.3
2022-09-11T10:41:30.529Z,17.3
2022-09-11T10:43:26.832Z,17.2
2022-09-11T10:45:30.656Z,17.3
2022-09-11T10:49:28.144Z,17.3
2022-09-11T10:51:30.769Z,17.3
2022-09-11T10:55:26.713Z,17.3
2022-09-11T10:57:30.107Z,17.3
2022-09-11T10:59:29.132Z,17.3
2022-09-11T11:01:28.130Z,17.3
2022-09-11T11:03:30.551Z,17.3
2022-09-11T11:05:30.644Z,17.3
2022-09-11T11:07:28.595Z,17.3
2022-09-11T11:13:27.911Z,17.4
2022-09-11T11:15:30.542Z,17.5
2022-09-11T11:17:30.653Z,17.5
2022-09-11T11:19:24.574Z,17.5
2022-09-11T11:21:30.662Z,17.6
2022-09-11T11:25:30.533Z,17.6
2022-09-11T11:29:29.019Z,17.5
2022-09-11T11:31:29.769Z,17.6
2022-09-11T11:33:30.699Z,17.7
2022-09-11T11:37:26.542Z,17.7
2022-09-11T11:43:31.082Z,17.7
2022-09-11T11:45:30.981Z,17.7
2022-09-11T11:47:30.797Z,17.8
2022-09-11T11:49:24.744Z,17.8
2022-09-11T11:53:30.972Z,17.9
2022-09-11T11:55:24.796Z,17.9
2022-09-11T11:57:30.770Z,17.9
2022-09-11T11:59:28.779Z,17.9
2022-09-11T12:01:28.853Z,17.8
2022-09-11T12:07:27.727Z,17.9
2022-09-11T12:13:26.323Z,17.8
2022-09-11T12:17:30.026Z,18
2022-09-11T12:19:28.548Z,18.1
2022-09-11T12:21:30.923Z,18.1
2022-09-11T12:23:28.427Z,18.1
2022-09-11T12:25:26.624Z,18.1
2022-09-11T12:31:28.494Z,18.3
2022-09-11T12:33:31.073Z,18.3
2022-09-11T12:35:31.189Z,18.3
2022-09-11T12:37:30.775Z,18.4
2022-09-11T12:43:28.879Z,18.4
2022-09-11T12:45:31.154Z,18.4
2022-09-11T12:49:29.745Z,18.3
2022-09-11T12:51:31.422Z,18.3
2022-09-11T12:53:29.294Z,18.3
2022-09-11T12:55:26.997Z,18.4
2022-09-11T12:57:31.269Z,18.4
2022-09-11T13:01:32.242Z,18.3
2022-09-11T13:03:31.456Z,18.4
2022-09-11T13:05:31.573Z,18.4
2022-09-11T13:07:26.665Z,18.5
2022-09-11T13:09:30.231Z,18.6
2022-09-11T13:13:25.761Z,18.6
2022-09-11T13:15:30.488Z,18.6
2022-09-11T13:17:31.501Z,18.4
2022-09-11T13:19:26.874Z,18.5
2022-09-11T13:25:30.648Z,18.5
2022-09-11T13:29:30.548Z,18.6
2022-09-11T13:31:27.071Z,18.7
2022-09-11T13:35:31.714Z,18.7
2022-09-11T13:37:27.077Z,18.7
2022-09-11T13:43:27.652Z,18.8
2022-09-11T13:45:30.860Z,18.8
2022-09-11T13:49:28.571Z,18.7
2022-09-11T13:51:31.935Z,18.7
2022-09-11T13:55:28.822Z,18.7
2022-09-11T13:57:31.623Z,18.7
2022-09-11T13:59:31.818Z,18.7
2022-09-11T14:01:28.550Z,18.7
2022-09-11T14:07:28.999Z,18.8
2022-09-11T14:09:30.214Z,18.9
2022-09-11T14:11:35.098Z,18.9
2022-09-11T14:13:25.955Z,18.9
2022-09-11T14:19:27.552Z,18.9
2022-09-11T14:21:28.445Z,18.9
2022-09-11T14:25:31.852Z,18.9
2022-09-11T14:27:31.444Z,18.8
2022-09-11T14:29:32.013Z,18.8
2022-09-11T14:31:28.654Z,18.7
2022-09-11T14:33:30.441Z,18.7
2022-09-11T14:35:32.101Z,18.7
2022-09-11T14:37:27.557Z,18.6
2022-09-11T14:41:31.571Z,18.6
2022-09-11T14:43:28.808Z,18.6
2022-09-11T14:45:32.104Z,18.6
2022-09-11T14:49:32.477Z,18.5
2022-09-11T14:55:26.982Z,18.6
2022-09-11T14:57:32.161Z,18.6
2022-09-11T15:01:28.855Z,18.6
2022-09-11T15:05:31.582Z,18.5
2022-09-11T15:07:27.990Z,18.5
2022-09-11T15:09:29.913Z,18.5
2022-09-11T15:13:29.403Z,18.5
2022-09-11T15:15:32.272Z,18.4
2022-09-11T15:17:32.101Z,18.3
2022-09-11T15:19:29.461Z,18.2
2022-09-11T15:21:35.388Z,18.3
2022-09-11T15:23:32.764Z,18.3
2022-09-11T15:25:30.508Z,18.2
2022-09-11T15:31:27.168Z,18.1
2022-09-11T15:33:32.805Z,18
2022-09-11T15:35:33.107Z,18.2
2022-09-11T15:37:31.285Z,18.2
2022-09-11T15:39:32.531Z,18.1
2022-09-11T15:43:29.517Z,18.3
2022-09-11T15:45:32.527Z,18.2
2022-09-11T15:47:36.229Z,18.2
2022-09-11T15:49:30.842Z,18.2
2022-09-11T15:53:32.781Z,18
2022-09-11T15:55:32.217Z,18.1
2022-09-11T16:01:34.814Z,18.3
2022-09-11T16:03:32.471Z,18.3
2022-09-11T16:07:31.014Z,18.2
2022-09-11T16:11:33.041Z,18.2
2022-09-11T16:13:29.993Z,18.1
2022-09-11T16:19:29.055Z,18
2022-09-11T16:25:28.171Z,17.8
2022-09-11T16:29:51.434Z,17.8
2022-09-11T16:31:32.692Z,17.8
2022-09-11T16:33:33.597Z,17.8
2022-09-11T16:37:32.043Z,17.6
2022-09-11T16:39:30.187Z,17.6
2022-09-11T16:41:33.626Z,17.5
2022-09-11T16:43:28.620Z,17.6
2022-09-11T16:45:34.493Z,17.5
2022-09-11T16:49:44.899Z,17.5
2022-09-11T16:53:34.361Z,17.5
2022-09-11T16:55:32.888Z,17.4
2022-09-11T16:57:34.396Z,17.4
2022-09-11T16:59:34.424Z,17.4
2022-09-11T17:01:28.890Z,17.3
2022-09-11T17:05:29.895Z,17.1
2022-09-11T17:07:31.911Z,17.1
2022-09-11T17:11:34.668Z,17
2022-09-11T17:13:31.281Z,17
2022-09-11T17:15:34.638Z,17
2022-09-11T17:19:33.749Z,16.7
2022-09-11T17:25:32.537Z,16.7
2022-09-11T17:27:34.934Z,16.7
2022-09-11T17:29:34.686Z,16.7
2022-09-11T17:31:29.351Z,16.6
2022-09-11T17:33:50.721Z,16.6
2022-09-11T17:38:39.396Z,16.7
2022-09-11T17:57:25.020Z,16.2
2022-09-11T18:08:37.953Z,15.8
2022-09-11T18:17:57.212Z,15.8
2022-09-11T18:25:17.166Z,15.8
2022-09-11T18:27:14.444Z,15.9
2022-09-11T18:29:11.991Z,15.9
2022-09-11T18:31:11.265Z,15.7
2022-09-11T18:33:14.638Z,15.6
2022-09-11T18:35:14.754Z,15.3
2022-09-11T18:37:14.457Z,15.5
2022-09-11T18:39:14.498Z,15.6
2022-09-11T18:41:11.567Z,15.6
2022-09-11T18:43:11.212Z,15.6
2022-09-11T18:47:11.513Z,15.3
2022-09-11T18:49:12.201Z,15.3
2022-09-11T18:51:11.474Z,15.2
2022-09-11T18:53:11.534Z,15.1
2022-09-11T18:55:17.346Z,15.1
2022-09-11T18:57:11.508Z,15
2022-09-11T18:59:11.413Z,15.1
2022-09-11T19:01:12.654Z,15.3
2022-09-11T19:03:11.481Z,15.3
2022-09-11T19:05:11.456Z,15
2022-09-11T19:07:11.307Z,14.9
2022-09-11T19:09:11.871Z,14.9
2022-09-11T19:11:11.537Z,14.9
2022-09-11T19:15:11.681Z,14.7
2022-09-11T19:17:11.419Z,14.7
2022-09-11T19:19:11.781Z,14.7
2022-09-11T19:21:11.817Z,14.7
2022-09-11T19:23:11.534Z,14.7
2022-09-11T19:25:11.238Z,14.6
2022-09-11T19:27:11.559Z,14.5
2022-09-11T19:31:14.307Z,14.6
2022-09-11T19:33:11.852Z,14.7
2022-09-11T19:35:11.556Z,14.7
2022-09-11T19:37:11.685Z,14.7
2022-09-11T19:39:11.561Z,14.5
2022-09-11T19:41:11.472Z,14.5
2022-09-11T19:43:11.312Z,14.4
2022-09-11T19:45:11.610Z,14.3
2022-09-11T19:47:11.926Z,14.4
2022-09-11T19:49:11.484Z,14.4
2022-09-11T19:51:11.582Z,14.4
2022-09-11T19:53:12.994Z,14.5
2022-09-11T19:55:11.653Z,14.3
2022-09-11T19:57:11.563Z,14.3
2022-09-11T19:59:12.019Z,14.1
2022-09-11T20:01:11.799Z,14
2022-09-11T20:05:11.562Z,13.8
2022-09-11T20:09:30.210Z,13.7
2022-09-11T20:15:11.570Z,13.4
2022-09-11T20:17:12.300Z,13.6
2022-09-11T20:19:11.315Z,13.8
2022-09-11T20:21:11.813Z,13.8
2022-09-11T20:23:11.822Z,13.8
2022-09-11T20:25:11.687Z,13.8
2022-09-11T20:27:14.407Z,13.7
2022-09-11T20:29:11.414Z,13.6
2022-09-11T20:33:12.057Z,13.4
2022-09-11T20:35:11.525Z,13.4
2022-09-11T20:39:11.615Z,13.6
2022-09-11T20:41:11.483Z,13.6
2022-09-11T20:43:11.550Z,13.5
2022-09-11T20:45:12.087Z,13.3
2022-09-11T20:47:11.520Z,13.2
2022-09-11T20:49:11.365Z,13.2
2022-09-11T20:51:11.492Z,13.2
2022-09-11T20:53:11.527Z,13.2
2022-09-11T20:55:11.886Z,13.1
2022-09-11T20:57:11.575Z,13.3
2022-09-11T20:59:11.592Z,13.3
2022-09-11T21:01:11.821Z,13.4
2022-09-11T21:03:11.695Z,13.4
2022-09-11T21:07:12.026Z,13.5
2022-09-11T21:09:11.550Z,13.4
2022-09-11T21:11:11.553Z,13.5
2022-09-11T21:13:11.347Z,13.4
2022-09-11T21:15:11.466Z,13.4
2022-09-11T21:17:12.263Z,13.4
2022-09-11T21:19:12.030Z,13.3
2022-09-11T21:21:11.595Z,13.4
2022-09-11T21:23:11.438Z,13.4
2022-09-11T21:25:11.237Z,13.3
2022-09-11T21:27:14.779Z,13
2022-09-11T21:29:11.434Z,13.1
2022-09-11T21:31:11.814Z,12.9
2022-09-11T21:33:11.566Z,12.8
2022-09-11T21:35:11.532Z,12.9
2022-09-11T21:37:11.353Z,12.9
2022-09-11T21:39:11.987Z,12.9
2022-09-11T21:41:11.961Z,13
2022-09-11T21:43:11.341Z,12.9
2022-09-11T21:45:11.588Z,13
2022-09-11T21:47:11.508Z,12.9
2022-09-11T21:49:11.252Z,12.9
2022-09-11T21:51:12.227Z,12.9
2022-09-11T21:53:11.529Z,12.9
2022-09-11T21:55:11.351Z,12.9
2022-09-11T21:57:11.606Z,12.9
2022-09-11T22:01:11.305Z,12.9
2022-09-11T22:03:12.246Z,12.9
2022-09-11T22:05:11.643Z,12.8
2022-09-11T22:07:11.221Z,12.9
2022-09-11T22:09:12.214Z,12.8
2022-09-11T22:11:11.567Z,12.8
2022-09-11T22:13:11.671Z,12.9
2022-09-11T22:15:11.490Z,12.9
2022-09-11T22:17:11.925Z,12.9
2022-09-11T22:19:14.649Z,12.9
2022-09-11T22:21:11.837Z,12.9
2022-09-11T22:23:11.814Z,13
2022-09-11T22:25:11.366Z,12.9
2022-09-11T22:29:11.485Z,12.8
2022-09-11T22:31:14.659Z,12.7
2022-09-11T22:35:12.852Z,12.6
2022-09-11T22:37:12.081Z,12.6
2022-09-11T22:39:11.459Z,12.6
2022-09-11T22:41:11.474Z,12.8
2022-09-11T22:43:11.221Z,12.9
2022-09-11T22:45:11.457Z,13
2022-09-11T22:47:11.480Z,13
2022-09-11T22:49:14.070Z,12.9
2022-09-11T22:51:11.493Z,12.9
2022-09-11T22:53:11.443Z,12.9
2022-09-11T22:55:11.229Z,12.9
2022-09-11T22:57:11.522Z,13.1
2022-09-11T22:59:11.460Z,13.1
2022-09-11T23:01:12.569Z,13.1
2022-09-11T23:03:11.618Z,13.1
2022-09-11T23:05:11.905Z,13
2022-09-11T23:07:12.533Z,13.1
2022-09-11T23:11:14.670Z,13.1
2022-09-11T23:13:11.215Z,13.1
2022-09-11T23:15:11.446Z,13
2022-09-11T23:17:11.468Z,12.9
2022-09-11T23:19:11.408Z,12.6
2022-09-11T23:21:11.870Z,12.4
2022-09-11T23:23:11.583Z,12.3
2022-09-11T23:25:11.666Z,12.3
2022-09-11T23:27:12.022Z,12.3
2022-09-11T23:31:11.248Z,12.5
2022-09-11T23:33:14.050Z,12.5
2022-09-11T23:35:11.495Z,12.6
2022-09-11T23:39:12.023Z,12.4
2022-09-11T23:41:11.461Z,12.4
2022-09-11T23:43:14.067Z,12.4
2022-09-11T23:45:12.519Z,12.6
2022-09-11T23:47:11.438Z,12.6
2022-09-11T23:49:11.433Z,12.5
2022-09-11T23:51:12.213Z,12.3
2022-09-11T23:53:12.018Z,12.3
2022-09-11T23:55:11.359Z,12.3
2022-09-11T23:57:17.603Z,12.2
